Manea, United Kingdom
Current Conditions -  °F | °C
As of 6:58 AM on Saturday 25 Oct 2014 (Local Time) from EGUN Reporting Station
Overcast Overcast  
Wind Chill:   Ceiling: 4600
Heat Index:   Visibility: 6mi
Dew Point:   Wind: 7mph
Humidity: 100%   Direction: 220°SW
Pressure: 30"   Gusts: NA
Location:  52.48°N, 0.18°E
Report Text: EGUN 250558Z 22006KT 9999 OVC046 07/07 A3000 RMK AO2A SLP162 10079 20063 52007 $
Loading
Personal Weather Stations






























Interactive Weather Map
Tropical Storm Tracking
New forecast layout! Learn more

10-Day Weather Forecast

Advertisements
Track Severe Weather on mobile